Time;durP1;ratioP1;P1;durP2;ratioP2;P2;SDS_P1;SDS_P2;PMS_P1;PMS_P2;Temp;Humidity;BMP_temperature;BMP_pressure;BME280_temperature;BME280_humidity;BME280_pressure;Samples;Min_cycle;Max_cycle;Signal;HPM_P1;HPM_P2
2023/04/07 00:03:10;;;;;;;35.6;20.4;;;;;;;1.2;90;98600;;;;
2023/04/07 00:14:10;;;;;;;32.4;18;;;;;;;1.3;90;98590;;;;
2023/04/07 00:25:10;;;;;;;32.4;18;;;;;;;1.2;89.8;98580;;;;
2023/04/07 00:35:10;;;;;;;32.4;18;;;;;;;1.3;89.9;98580;;;;
2023/04/07 00:45:10;;;;;;;31.8;18.8;;;;;;;1.2;90;98570;;;;
2023/04/07 00:56:10;;;;;;;31.8;18.8;;;;;;;1.2;89.8;98560;;;;
2023/04/07 01:06:10;;;;;;;31.8;18.8;;;;;;;1.2;90;98550;;;;
2023/04/07 01:17:10;;;;;;;29;18;;;;;;;1.3;89.9;98550;;;;
2023/04/07 01:27:10;;;;;;;29;18;;;;;;;1.4;89.9;98550;;;;
2023/04/07 01:38:10;;;;;;;29;18;;;;;;;1.4;89.7;98550;;;;
2023/04/07 01:48:10;;;;;;;31.1;17.5;;;;;;;1.3;89.7;98530;;;;
2023/04/07 01:59:10;;;;;;;31.1;17.5;;;;;;;1.3;89.8;98520;;;;
2023/04/07 02:09:10;;;;;;;31.1;17.5;;;;;;;1.3;89.8;98530;;;;
2023/04/07 02:19:10;;;;;;;30.8;17.9;;;;;;;1.3;89.9;98540;;;;
2023/04/07 02:29:10;;;;;;;30.8;17.9;;;;;;;1.3;90;98530;;;;
2023/04/07 02:40:10;;;;;;;30.8;17.9;;;;;;;1.3;90;98530;;;;
2023/04/07 02:51:10;;;;;;;29.5;16.9;;;;;;;1.4;90;98520;;;;
2023/04/07 03:02:10;;;;;;;29.5;16.9;;;;;;;1.4;89.8;98520;;;;
2023/04/07 03:12:10;;;;;;;30.9;16.9;;;;;;;1.4;89.9;98520;;;;
2023/04/07 03:22:10;;;;;;;30.9;16.9;;;;;;;1.3;90.1;98510;;;;
2023/04/07 03:32:10;;;;;;;30.9;16.9;;;;;;;1.3;90.2;98510;;;;
2023/04/07 03:43:13;;;;;;;35.4;17.4;;;;;;;1.3;90.4;98500;;;;
2023/04/07 03:54:10;;;;;;;35.4;17.4;;;;;;;1.3;90.4;98520;;;;
2023/04/07 04:05:10;;;;;;;35.4;17.4;;;;;;;1.3;90.7;98520;;;;
2023/04/07 04:15:10;;;;;;;31;17.7;;;;;;;1.4;90.9;98530;;;;
2023/04/07 04:25:10;;;;;;;31;17.7;;;;;;;1.5;90.7;98550;;;;
2023/04/07 04:36:10;;;;;;;31;17.7;;;;;;;1.5;90.4;98540;;;;
2023/04/07 04:46:10;;;;;;;28;15.9;;;;;;;1.4;90.4;98500;;;;
2023/04/07 04:56:10;;;;;;;28;15.9;;;;;;;1.6;90.4;98530;;;;
2023/04/07 05:07:10;;;;;;;28;15.9;;;;;;;1.6;90.1;98530;;;;
2023/04/07 05:17:10;;;;;;;26.3;14.8;;;;;;;1.8;90;98550;;;;
2023/04/07 05:27:10;;;;;;;26.3;14.8;;;;;;;1.9;89.8;98550;;;;
2023/04/07 05:38:10;;;;;;;26.3;14.8;;;;;;;1.8;89.4;98550;;;;
2023/04/07 05:49:10;;;;;;;26.3;14.8;;;;;;;1.9;89.5;98540;;;;
2023/04/07 05:59:10;;;;;;;26.3;14.8;;;;;;;2;89.3;98550;;;;
2023/04/07 06:10:10;;;;;;;27.7;15.2;;;;;;;2.1;89.2;98540;;;;
2023/04/07 06:20:10;;;;;;;27.7;15.2;;;;;;;2;89;98530;;;;
2023/04/07 06:30:10;;;;;;;27.7;15.2;;;;;;;2;89.1;98520;;;;
2023/04/07 06:41:15;;;;;;;30.6;15.5;;;;;;;2.1;89.2;98530;;;;
2023/04/07 06:51:10;;;;;;;30.6;15.5;;;;;;;2.2;89;98530;;;;
2023/04/07 07:01:10;;;;;;;30.6;15.5;;;;;;;2.1;89.1;98540;;;;
2023/04/07 07:11:10;;;;;;;26.2;14.4;;;;;;;2.2;89;98540;;;;
2023/04/07 07:21:10;;;;;;;26.2;14.4;;;;;;;2.3;88.8;98540;;;;
2023/04/07 07:31:11;;;;;;;26.2;14.4;;;;;;;2.5;88.6;98550;;;;
2023/04/07 07:42:10;;;;;;;28.1;14.9;;;;;;;2.5;88.3;98530;;;;
2023/04/07 07:53:10;;;;;;;25.6;14.5;;;;;;;2.8;87.9;98550;;;;
2023/04/07 08:03:10;;;;;;;25.6;14.5;;;;;;;2.9;87.3;98550;;;;
2023/04/07 08:14:10;;;;;;;25.6;14.5;;;;;;;2.7;87.5;98540;;;;
2023/04/07 08:24:10;;;;;;;25.3;14.5;;;;;;;2.8;87.7;98540;;;;
2023/04/07 08:34:10;;;;;;;25.3;14.5;;;;;;;2.9;87.3;98540;;;;
2023/04/07 08:44:10;;;;;;;25.3;14.5;;;;;;;2.9;87.2;98550;;;;
2023/04/07 08:55:10;;;;;;;27.9;15.7;;;;;;;2.9;87;98570;;;;
2023/04/07 09:05:10;;;;;;;27.9;15.7;;;;;;;3.1;86.9;98570;;;;
2023/04/07 09:16:10;;;;;;;27.9;15.7;;;;;;;2.9;86.9;98560;;;;
2023/04/07 09:26:10;;;;;;;23.8;13.1;;;;;;;2.9;87.2;98550;;;;
2023/04/07 09:36:11;;;;;;;23.8;13.1;;;;;;;2.8;87.6;98540;;;;
2023/04/07 09:46:10;;;;;;;23.8;13.1;;;;;;;3;87.4;98540;;;;
2023/04/07 09:56:10;;;;;;;23.7;14.9;;;;;;;3;87.3;98530;;;;
2023/04/07 10:06:10;;;;;;;23.7;14.9;;;;;;;3.1;87.2;98540;;;;
2023/04/07 10:17:11;;;;;;;23.7;14.9;;;;;;;3;87.5;98530;;;;
2023/04/07 10:27:10;;;;;;;23.9;14;;;;;;;3.1;87.5;98530;;;;
2023/04/07 10:37:12;;;;;;;23.9;14;;;;;;;3.3;87.4;98530;;;;
2023/04/07 10:48:10;;;;;;;23.9;14;;;;;;;3.5;86.6;98540;;;;
2023/04/07 10:58:10;;;;;;;22.8;12.6;;;;;;;3.5;86.7;98530;;;;
2023/04/07 11:09:10;;;;;;;22.8;12.6;;;;;;;4;86.2;98520;;;;
2023/04/07 11:20:10;;;;;;;20.4;12.2;;;;;;;4.1;85.6;98530;;;;
2023/04/07 11:30:10;;;;;;;20.4;12.2;;;;;;;3.9;84.8;98540;;;;
2023/04/07 11:40:11;;;;;;;20.4;12.2;;;;;;;3.9;85;98530;;;;
2023/04/07 11:50:10;;;;;;;16.9;10.4;;;;;;;3.8;85.4;98540;;;;
2023/04/07 12:00:10;;;;;;;16.9;10.4;;;;;;;3.9;85.4;98550;;;;
2023/04/07 12:11:11;;;;;;;16.9;10.4;;;;;;;3.8;85.5;98530;;;;
2023/04/07 12:21:10;;;;;;;14.2;8.3;;;;;;;3.8;85.7;98530;;;;
2023/04/07 12:31:11;;;;;;;14.2;8.3;;;;;;;3.7;85.7;98530;;;;
2023/04/07 12:42:10;;;;;;;14.2;8.3;;;;;;;3.6;86.3;98540;;;;
2023/04/07 12:52:10;;;;;;;16.1;10.2;;;;;;;3.8;86.4;98550;;;;
2023/04/07 13:02:12;;;;;;;16.1;10.2;;;;;;;3.8;86.5;98550;;;;
2023/04/07 13:12:10;;;;;;;16.1;10.2;;;;;;;3.7;87;98550;;;;
2023/04/07 13:23:10;;;;;;;16.5;10.3;;;;;;;3.8;87.3;98550;;;;
2023/04/07 13:33:10;;;;;;;16.5;10.3;;;;;;;3.6;87.7;98550;;;;
2023/04/07 13:44:10;;;;;;;16.5;10.3;;;;;;;3.6;87.8;98550;;;;
2023/04/07 13:54:10;;;;;;;16;10.3;;;;;;;3.6;87.8;98560;;;;
2023/04/07 14:05:10;;;;;;;16;10.3;;;;;;;3.6;88;98560;;;;
2023/04/07 14:15:10;;;;;;;16;10.3;;;;;;;3.6;88.1;98560;;;;
2023/04/07 14:26:10;;;;;;;16.2;9.9;;;;;;;3.7;88.3;98570;;;;
2023/04/07 14:37:10;;;;;;;16.2;9.9;;;;;;;3.8;88.2;98570;;;;
2023/04/07 14:48:10;;;;;;;16.2;9.9;;;;;;;3.9;87.9;98570;;;;
2023/04/07 14:59:10;;;;;;;19.4;11.9;;;;;;;3.9;88;98570;;;;
2023/04/07 15:10:10;;;;;;;19.4;11.9;;;;;;;3.8;88;98570;;;;
2023/04/07 15:21:10;;;;;;;17.9;11.2;;;;;;;3.8;88.2;98570;;;;
2023/04/07 15:32:10;;;;;;;17.9;11.2;;;;;;;3.7;88.4;98570;;;;
2023/04/07 15:42:11;;;;;;;17.9;11.2;;;;;;;3.8;88.6;98570;;;;
2023/04/07 15:52:12;;;;;;;17.9;10.4;;;;;;;3.6;88.9;98570;;;;
2023/04/07 16:03:10;;;;;;;17.9;10.4;;;;;;;3.7;89;98570;;;;
2023/04/07 16:13:10;;;;;;;17.9;10.4;;;;;;;3.7;89.2;98570;;;;
2023/04/07 16:24:10;;;;;;;16.7;9.3;;;;;;;3.7;89.3;98590;;;;
2023/04/07 16:35:10;;;;;;;16.7;9.3;;;;;;;3.7;89.1;98600;;;;
2023/04/07 16:45:10;;;;;;;16.7;9.3;;;;;;;3.6;89.4;98620;;;;
2023/04/07 16:55:11;;;;;;;13.9;9.1;;;;;;;3.5;89.4;98620;;;;
2023/04/07 17:06:10;;;;;;;13.9;9.1;;;;;;;3.5;89.4;98640;;;;
2023/04/07 17:16:10;;;;;;;13.9;9.1;;;;;;;3.5;89.2;98640;;;;
2023/04/07 17:26:10;;;;;;;13.3;7.9;;;;;;;3.4;89.4;98650;;;;
2023/04/07 17:36:10;;;;;;;13.3;7.9;;;;;;;3.4;89.4;98660;;;;
2023/04/07 17:46:10;;;;;;;13.3;7.9;;;;;;;3.4;89.5;98670;;;;
2023/04/07 17:57:10;;;;;;;20.2;11.1;;;;;;;3.3;89.6;98690;;;;
2023/04/07 18:07:11;;;;;;;20.2;11.1;;;;;;;3.2;89.8;98690;;;;
2023/04/07 18:17:10;;;;;;;20.2;11.1;;;;;;;3.2;90;98700;;;;
2023/04/07 18:27:11;;;;;;;22.4;12.4;;;;;;;3.3;89.9;98720;;;;
2023/04/07 18:38:10;;;;;;;22.4;12.4;;;;;;;3.3;89.9;98730;;;;
2023/04/07 18:48:10;;;;;;;26.3;15.9;;;;;;;3.2;89.9;98730;;;;
2023/04/07 18:58:10;;;;;;;26.3;15.9;;;;;;;3.2;89.9;98740;;;;
2023/04/07 19:09:10;;;;;;;26.3;15.9;;;;;;;3.3;90;98740;;;;
2023/04/07 19:19:12;;;;;;;23.3;14.8;;;;;;;3.2;90;98750;;;;
2023/04/07 19:30:10;;;;;;;23.3;14.8;;;;;;;3.4;89.9;98760;;;;
2023/04/07 19:41:10;;;;;;;23.3;14.8;;;;;;;3.5;89.6;98770;;;;
2023/04/07 19:51:10;;;;;;;20.9;12.2;;;;;;;3.4;89.3;98780;;;;
2023/04/07 20:01:11;;;;;;;20.9;12.2;;;;;;;3.4;89.3;98780;;;;
2023/04/07 20:12:10;;;;;;;20.9;12.2;;;;;;;3.4;89.2;98790;;;;
2023/04/07 20:22:10;;;;;;;23.6;13.9;;;;;;;3.4;89.3;98790;;;;
2023/04/07 20:32:10;;;;;;;23.6;13.9;;;;;;;3.4;89.4;98800;;;;
2023/04/07 20:42:11;;;;;;;23.6;13.9;;;;;;;3.3;89.3;98810;;;;
2023/04/07 20:53:10;;;;;;;31.2;17.4;;;;;;;3.4;89.3;98800;;;;
2023/04/07 21:03:10;;;;;;;31.2;17.4;;;;;;;3.4;89.1;98810;;;;
2023/04/07 21:13:10;;;;;;;31.2;17.4;;;;;;;3.3;89.2;98810;;;;
2023/04/07 21:23:10;;;;;;;26.6;15.6;;;;;;;3.4;89.3;98820;;;;
2023/04/07 21:34:10;;;;;;;26.6;15.6;;;;;;;3.5;89.1;98820;;;;
2023/04/07 21:44:11;;;;;;;26.6;15.6;;;;;;;3.6;89;98820;;;;
2023/04/07 21:54:11;;;;;;;27.1;16;;;;;;;3.6;88.7;98810;;;;
2023/04/07 22:04:10;;;;;;;27.1;16;;;;;;;3.7;88.5;98810;;;;
2023/04/07 22:14:10;;;;;;;27.1;16;;;;;;;3.7;88.2;98820;;;;
2023/04/07 22:25:11;;;;;;;22.6;14.9;;;;;;;3.5;88.2;98810;;;;
2023/04/07 22:36:10;;;;;;;22.6;14.9;;;;;;;3.5;88.3;98810;;;;
2023/04/07 22:46:10;;;;;;;22.6;14.9;;;;;;;3.5;88.4;98820;;;;
2023/04/07 22:56:10;;;;;;;23.1;13.1;;;;;;;3.4;88.6;98820;;;;
2023/04/07 23:06:10;;;;;;;23.1;13.1;;;;;;;3.4;88.7;98820;;;;
2023/04/07 23:16:10;;;;;;;23.1;13.1;;;;;;;3.4;88.5;98820;;;;
2023/04/07 23:27:10;;;;;;;22.2;13.9;;;;;;;3.4;88.5;98820;;;;
2023/04/07 23:37:10;;;;;;;22.2;13.9;;;;;;;3.3;88.5;98810;;;;
2023/04/07 23:47:10;;;;;;;24.5;14;;;;;;;3.2;88.5;98820;;;;
2023/04/07 23:58:10;;;;;;;24.5;14;;;;;;;3;88.9;98820;;;;
